Time;durP1;ratioP1;P1;durP2;ratioP2;P2;SDS_P1;SDS_P2;PMS_P1;PMS_P2;Temp;Humidity;BMP_temperature;BMP_pressure;BME280_temperature;BME280_humidity;BME280_pressure;Samples;Min_cycle;Max_cycle;Signal;HPM_P1;HPM_P2
2021/07/12 01:25:18;;;;;;;;;;;;;;;;;;;;;
2021/07/12 01:48:26;;;;;;;138.67;131.73;;;13.80;99.90;;;;;;6049078;23;20413;-88
2021/07/12 02:31:49;;;;;;;138.83;130.67;;;13.40;99.90;;;;;;5870032;24;20518;-80
2021/07/12 02:34:16;;;;;;;142.77;133.97;;;13.30;99.90;;;;;;5990182;23;20458;-85
2021/07/12 02:36:48;;;;;;;139.77;131.97;;;13.40;99.90;;;;;;6008200;23;20494;-84
2021/07/12 02:39:15;;;;;;;147.47;138.67;;;13.50;99.90;;;;;;6125618;23;20498;-82
2021/07/12 02:41:44;;;;;;;144.97;136.00;;;13.40;99.90;;;;;;6122618;23;20443;-82
2021/07/12 02:44:13;;;;;;;156.43;147.33;;;13.50;99.90;;;;;;6246010;23;20431;-80
2021/07/12 02:46:42;;;;;;;152.40;143.30;;;13.60;99.90;;;;;;6246235;23;20399;-80
2021/07/12 02:49:11;;;;;;;160.97;151.40;;;13.50;99.90;;;;;;6255631;23;20888;-82
2021/07/12 02:51:42;;;;;;;163.50;154.10;;;13.60;99.90;;;;;;6245455;23;20731;-82
2021/07/12 02:54:12;;;;;;;163.50;154.23;;;13.60;99.90;;;;;;6245813;23;20446;-82
2021/07/12 03:22:39;;;;;;;156.03;146.77;;;13.30;99.90;;;;;;6200167;22;20445;-83
2021/07/12 03:29:08;;;;;;;142.00;132.47;;;13.30;99.90;;;;;;6113550;23;20410;-87
2021/07/12 03:45:07;;;;;;;154.27;144.20;;;13.20;99.90;;;;;;5853950;24;20429;-83
2021/07/12 03:47:37;;;;;;;156.27;147.37;;;13.20;99.90;;;;;;6039680;23;20422;-84
2021/07/12 03:50:12;;;;;;;153.70;144.70;;;13.20;99.90;;;;;;6163230;22;20402;-84
2021/07/12 03:52:47;;;;;;;161.03;151.83;;;13.20;99.90;;;;;;6319385;22;20405;-85
2021/07/12 03:55:19;;;;;;;160.83;151.57;;;13.30;99.90;;;;;;6307508;22;20952;-84
2021/07/12 03:57:47;;;;;;;164.30;154.30;;;13.30;99.90;;;;;;6276434;22;20395;-83
2021/07/12 04:00:18;;;;;;;163.03;153.50;;;13.40;99.90;;;;;;6287842;22;20434;-83
2021/07/12 04:02:48;;;;;;;166.03;155.90;;;13.40;99.90;;;;;;6288401;22;20410;-83
2021/07/12 04:05:16;;;;;;;162.53;152.10;;;13.40;99.90;;;;;;6277807;22;20441;-83
2021/07/12 04:07:47;;;;;;;164.57;154.23;;;13.60;99.90;;;;;;6277577;22;20406;-83
2021/07/12 04:10:17;;;;;;;165.20;154.40;;;13.70;99.90;;;;;;6278048;22;20406;-83
2021/07/12 04:23:27;;;;;;;;;;;;;;;;;;;;;
2021/07/12 04:32:34;;;;;;;190.13;179.23;;;14.10;99.90;;;;;;6065139;23;20417;-85
2021/07/12 04:35:13;;;;;;;;;;;;;;;;;;;;;
2021/07/12 05:34:28;;;;;;;68.83;63.33;;;17.10;99.90;;;;;;5855211;23;20241;-78
2021/07/12 05:36:55;;;;;;;48.33;43.33;;;17.20;99.90;;;;;;6094738;23;20156;-79
2021/07/12 05:39:22;;;;;;;46.60;41.47;;;17.60;99.90;;;;;;6111808;23;20973;-76
2021/07/12 05:41:49;;;;;;;40.97;36.47;;;17.60;99.90;;;;;;6244322;23;20446;-80
2021/07/12 05:44:16;;;;;;;40.90;30.40;;;17.70;99.90;;;;;;6246285;23;20407;-78
2021/07/12 05:46:43;;;;;;;39.23;21.50;;;18.00;99.90;;;;;;6246209;23;20915;-78
2021/07/12 05:49:09;;;;;;;40.70;23.43;;;18.10;99.90;;;;;;6246458;23;20431;-77
2021/07/12 05:51:38;;;;;;;37.43;17.13;;;18.30;99.90;;;;;;6246085;23;20403;-79
2021/07/12 05:54:04;;;;;;;38.93;16.37;;;18.50;99.90;;;;;;6251335;22;20505;-77
2021/07/12 05:56:31;;;;;;;46.00;15.40;;;18.80;96.30;;;;;;6275288;22;20398;-79
2021/07/12 05:58:58;;;;;;;38.50;15.33;;;18.90;94.50;;;;;;6276836;22;20391;-78
2021/07/12 06:01:25;;;;;;;40.87;17.60;;;18.90;93.40;;;;;;6276330;22;20434;-77
2021/07/12 06:04:15;;;;;;;;;;;;;;;;;;;;;
2021/07/12 06:06:53;;;;;;;40.03;15.43;;;19.20;91.00;;;;;;6283310;22;20414;-80
2021/07/12 06:09:20;;;;;;;40.50;16.20;;;19.40;85.50;;;;;;6286521;22;20399;-81
2021/07/12 06:44:57;;;;;;;;;;;;;;;;;;;;;
2021/07/12 06:47:27;;;;;;;50.60;15.10;;;21.40;53.80;;;;;;5934311;24;20961;-85
2021/07/12 06:49:54;;;;;;;51.13;15.00;;;21.70;47.90;;;;;;5972772;23;20457;-81
2021/07/12 06:52:21;;;;;;;53.27;13.97;;;21.80;44.50;;;;;;6192740;23;20417;-82
2021/07/12 06:54:48;;;;;;;57.80;16.23;;;22.20;45.60;;;;;;6182413;23;20468;-80
2021/07/12 06:57:18;;;;;;;57.00;16.57;;;22.40;44.00;;;;;;6294634;22;20435;-84
2021/07/12 06:59:46;;;;;;;56.57;18.03;;;22.50;41.80;;;;;;6307564;22;20394;-88
2021/07/12 07:02:13;;;;;;;66.53;19.27;;;22.90;41.40;;;;;;6306351;22;20438;-80
2021/07/12 07:04:41;;;;;;;69.30;41.00;;;22.90;38.00;;;;;;6307650;22;20463;-81
2021/07/12 07:07:08;;;;;;;67.73;44.07;;;23.20;38.10;;;;;;6307386;22;20404;-86
2021/07/12 07:09:35;;;;;;;70.87;43.67;;;23.50;35.20;;;;;;6311881;22;20406;-80
2021/07/12 07:12:02;;;;;;;67.20;32.87;;;23.70;33.90;;;;;;6303662;22;20956;-80
2021/07/12 07:14:28;;;;;;;66.63;30.60;;;24.10;30.70;;;;;;6305202;22;20807;-80
2021/07/12 07:16:57;;;;;;;67.00;31.77;;;24.40;31.70;;;;;;6305452;22;20397;-83
2021/07/12 09:12:43;;;;;;;69.40;24.83;;;27.80;8.50;;;;;;6243465;22;20537;-78
2021/07/12 09:15:13;;;;;;;65.80;24.07;;;28.20;5.80;;;;;;6246643;23;20405;-78
2021/07/12 09:17:42;;;;;;;69.20;29.83;;;28.50;5.60;;;;;;6246352;23;20403;-78
2021/07/12 09:20:11;;;;;;;68.87;28.20;;;28.70;4.20;;;;;;6246741;23;20399;-80
2021/07/12 09:22:40;;;;;;;71.50;37.20;;;29.10;5.60;;;;;;6246640;23;20431;-81
2021/07/12 09:25:09;;;;;;;69.47;35.40;;;28.80;3.20;;;;;;6246780;23;20422;-79
2021/07/12 09:27:38;;;;;;;68.80;33.17;;;28.80;1.60;;;;;;6254860;23;20465;-81
2021/07/12 09:30:08;;;;;;;67.40;31.53;;;28.70;2.30;;;;;;6246831;23;20400;-80
2021/07/12 09:32:37;;;;;;;71.90;30.60;;;29.40;2.40;;;;;;6256261;23;20720;-84
2021/07/12 09:35:06;;;;;;;72.33;40.83;;;29.30;2.60;;;;;;6246580;23;20763;-82
2021/07/12 09:37:35;;;;;;;72.73;45.10;;;29.50;2.70;;;;;;6246702;23;20424;-83
2021/07/12 09:40:04;;;;;;;71.93;44.27;;;28.90;1.00;;;;;;6246636;23;20794;-82
2021/07/12 09:42:39;;;;;;;72.73;42.00;;;28.80;1.80;;;;;;6244257;23;20431;-84
2021/07/12 09:45:10;;;;;;;75.20;53.23;;;29.20;1.00;;;;;;6245801;23;20378;-85
2021/07/12 09:47:41;;;;;;;81.73;64.50;;;28.80;1.00;;;;;;6242888;23;20402;-84
2021/07/12 09:50:10;;;;;;;71.17;42.37;;;29.20;1.70;;;;;;6244386;23;20403;-85
2021/07/12 09:52:43;;;;;;;69.67;36.23;;;29.60;1.00;;;;;;6242330;23;20461;-85
2021/07/12 09:55:16;;;;;;;77.87;57.13;;;29.80;1.00;;;;;;6224804;23;20443;-86
2021/07/12 09:57:43;;;;;;;76.73;44.83;;;30.10;1.00;;;;;;6223265;23;20443;-87
2021/07/12 10:00:14;;;;;;;77.53;58.73;;;29.40;1.00;;;;;;6224178;23;20884;-87
2021/07/12 10:02:51;;;;;;;72.30;46.07;;;29.30;1.00;;;;;;6214423;23;20443;-85
2021/07/12 10:05:21;;;;;;;74.63;53.00;;;29.50;1.00;;;;;;6223694;23;20426;-86
2021/07/12 10:07:49;;;;;;;74.53;39.37;;;30.30;1.00;;;;;;6224000;23;20911;-86
2021/07/12 10:10:16;;;;;;;87.57;78.43;;;30.50;1.00;;;;;;6214682;23;20761;-86
2021/07/12 10:12:45;;;;;;;76.23;57.47;;;30.20;1.00;;;;;;6212738;23;20444;-84
2021/07/12 10:15:18;;;;;;;69.47;31.30;;;30.20;1.00;;;;;;6214094;23;20403;-85
2021/07/12 10:17:47;;;;;;;74.93;53.53;;;29.50;1.00;;;;;;6187418;23;20443;-86
2021/07/12 10:22:49;;;;;;;76.23;40.40;;;29.60;1.00;;;;;;6215065;23;20490;-82
2021/07/12 10:25:18;;;;;;;73.03;50.60;;;30.00;1.00;;;;;;6225542;23;20792;-83
2021/07/12 10:27:50;;;;;;;68.57;36.93;;;30.20;1.00;;;;;;6214220;23;20435;-82
2021/07/12 10:30:28;;;;;;;76.20;59.60;;;30.30;1.00;;;;;;6214911;23;20443;-83
2021/07/12 10:32:57;;;;;;;72.30;48.30;;;30.20;1.00;;;;;;6225396;23;20879;-83
2021/07/12 10:35:47;;;;;;;75.07;55.17;;;29.50;1.00;;;;;;6215776;23;20474;-83
2021/07/12 10:38:15;;;;;;;68.20;35.53;;;29.20;1.00;;;;;;6213961;23;20404;-83
2021/07/12 10:40:50;;;;;;;74.30;54.30;;;29.60;1.00;;;;;;6224311;23;20491;-82
2021/07/12 10:43:36;;;;;;;64.83;24.27;;;30.00;1.00;;;;;;6213440;23;20435;-83
2021/07/12 10:46:12;;;;;;;76.67;51.90;;;29.70;1.00;;;;;;6213160;23;20379;-83
2021/07/12 10:48:40;;;;;;;78.87;58.23;;;29.60;1.00;;;;;;6214491;23;20446;-85
2021/07/12 10:51:22;;;;;;;72.90;52.53;;;29.40;1.00;;;;;;6215490;23;20379;-84
2021/07/12 10:54:43;;;;;;;70.30;40.17;;;29.30;1.00;;;;;;6195119;23;20504;-87
2021/07/12 10:58:05;;;;;;;;;;;;;;;;;;;;;
2021/07/12 11:00:51;;;;;;;66.37;35.90;;;29.10;1.00;;;;;;6011741;23;20448;-87
2021/07/12 11:07:37;;;;;;;62.57;21.87;;;30.10;1.00;;;;;;5949809;24;20443;-89
2021/07/12 14:23:50;;;;;;;66.50;33.40;;;27.60;2.50;;;;;;6216026;22;20435;-84
2021/07/12 14:26:19;;;;;;;64.87;19.13;;;27.40;1.70;;;;;;6286760;22;20456;-84
2021/07/12 16:15:37;;;;;;;70.32;31.92;;;26.10;1.80;;;;;;6234260;22;20457;-79
2021/07/12 16:22:02;;;;;;;61.60;20.87;;;26.30;4.30;;;;;;6134916;23;20406;-85
2021/07/12 16:31:28;;;;;;;60.90;17.47;;;25.90;3.20;;;;;;6232103;22;20449;-83
2021/07/12 16:34:05;;;;;;;61.10;12.77;;;25.70;4.00;;;;;;6276982;22;20886;-82
2021/07/12 16:36:41;;;;;;;58.93;11.70;;;25.70;3.40;;;;;;6287232;22;20421;-83
2021/07/12 16:39:27;;;;;;;58.80;12.97;;;25.80;4.30;;;;;;6277437;22;20473;-85
2021/07/12 16:41:59;;;;;;;59.23;15.80;;;25.80;4.20;;;;;;6285968;22;20442;-86
2021/07/12 16:44:26;;;;;;;60.10;16.00;;;25.70;3.10;;;;;;6287617;22;20909;-89
2021/07/12 16:49:48;;;;;;;60.57;19.27;;;25.40;6.80;;;;;;6276722;22;20410;-86
2021/07/12 16:52:18;;;;;;;60.63;13.60;;;25.20;6.30;;;;;;6288028;22;20729;-88
2021/07/12 16:54:48;;;;;;;61.70;24.80;;;25.10;8.20;;;;;;6287911;22;20432;-86
2021/07/12 16:57:18;;;;;;;60.40;10.23;;;25.10;9.10;;;;;;6287689;22;20444;-90
2021/07/12 17:40:37;;;;;;;59.87;17.00;;;31.30;1.00;;;;;;6275787;22;20473;-86
2021/07/12 17:43:05;;;;;;;59.87;17.80;;;31.70;1.00;;;;;;6239995;22;20441;-83
2021/07/12 17:45:32;;;;;;;63.40;21.10;;;31.30;1.00;;;;;;6276980;22;20416;-83
2021/07/12 17:47:59;;;;;;;64.07;24.83;;;31.10;1.00;;;;;;6276378;22;20433;-83
2021/07/12 17:50:26;;;;;;;66.63;26.90;;;31.80;1.00;;;;;;6277206;22;20441;-88
2021/07/12 17:53:01;;;;;;;68.57;26.60;;;33.00;1.00;;;;;;6277093;22;20402;-85
2021/07/12 18:02:12;;;;;;;69.77;41.43;;;31.10;1.00;;;;;;6265346;22;20414;-86
2021/07/12 18:08:17;;;;;;;69.87;38.60;;;29.20;1.00;;;;;;6140425;23;20432;-85
2021/07/12 18:10:44;;;;;;;70.30;35.03;;;28.40;1.00;;;;;;6181035;23;20821;-81
2021/07/12 18:13:12;;;;;;;66.80;33.70;;;27.80;1.00;;;;;;6175864;23;20466;-82
2021/07/12 18:15:39;;;;;;;70.80;30.43;;;27.40;1.00;;;;;;6151344;23;20398;-82
2021/07/12 18:18:09;;;;;;;70.97;27.07;;;27.00;1.30;;;;;;6245190;22;20960;-88
2021/07/12 18:20:38;;;;;;;65.90;26.17;;;26.90;1.20;;;;;;6276369;22;20405;-89
2021/07/12 18:23:07;;;;;;;61.77;25.10;;;26.80;1.20;;;;;;6286337;22;20932;-87
2021/07/12 18:25:58;;;;;;;60.47;16.33;;;26.40;3.70;;;;;;6275286;22;20736;-85
2021/07/12 18:28:25;;;;;;;62.30;22.83;;;26.10;3.60;;;;;;6285618;22;20418;-86
2021/07/12 18:31:33;;;;;;;61.00;21.07;;;25.40;7.00;;;;;;6276676;22;20405;-82
2021/07/12 18:34:02;;;;;;;57.93;12.83;;;24.80;11.20;;;;;;6129779;23;20445;-81
2021/07/12 18:36:29;;;;;;;66.03;35.53;;;24.40;13.10;;;;;;6261493;22;20468;-81
2021/07/12 18:38:55;;;;;;;58.07;9.40;;;24.20;12.80;;;;;;6275282;22;20815;-81
2021/07/12 18:41:22;;;;;;;64.47;25.50;;;24.00;13.80;;;;;;6286397;22;20437;-81
2021/07/12 18:43:49;;;;;;;62.50;22.70;;;23.60;14.80;;;;;;6275068;22;20437;-81
2021/07/12 18:46:16;;;;;;;59.30;24.53;;;23.50;16.00;;;;;;6276605;22;20426;-81
2021/07/12 18:48:43;;;;;;;63.90;28.90;;;23.10;20.20;;;;;;6276709;22;20434;-81
2021/07/12 18:51:11;;;;;;;59.60;10.47;;;22.90;21.80;;;;;;6276660;22;20730;-81
2021/07/12 18:53:38;;;;;;;89.60;45.03;;;22.70;24.30;;;;;;6276253;22;20434;-82
2021/07/12 18:56:06;;;;;;;62.00;24.40;;;22.50;24.70;;;;;;6276905;22;20434;-82
2021/07/12 18:58:33;;;;;;;108.90;22.93;;;22.40;26.00;;;;;;6275334;22;20405;-82
2021/07/12 19:49:21;;;;;;;32.47;8.73;;;19.70;67.20;;;;;;6107623;23;20427;-84
2021/07/12 19:51:49;;;;;;;39.53;7.97;;;19.60;69.40;;;;;;6225178;23;20397;-83
